Time,TemperatureF,DewpointF,PressureIn,WindDirection,WindDirectionDegrees,WindSpeedMPH,WindSpeedGustMPH,Humidity,HourlyPrecipIn,Conditions,Clouds,dailyrainin,SoftwareType,DateUTC
2013-02-10 00:00:00,12.4,-1.1,-100.00,NW,307,2.4,5.2,54,99.99,n/a,n/a,-99.99,Henriksen +1-Wire,2013-02-10 05:00:00,
2013-02-10 00:10:00,12.6,-1.4,-100.00,NW,323,3.2,8.4,53,99.99,n/a,n/a,-99.99,Henriksen +1-Wire,2013-02-10 05:10:00,
2013-02-10 00:20:00,12.7,-1.5,-100.00,NW,307,2.4,10.4,52,99.99,n/a,n/a,-99.99,Henriksen +1-Wire,2013-02-10 05:20:00,
2013-02-10 00:30:00,12.8,-1.8,-100.00,NW,311,2.3,5.2,51,99.99,n/a,n/a,-99.99,Henriksen +1-Wire,2013-02-10 05:30:00,
2013-02-10 00:40:00,12.8,-2.0,-100.00,NW,307,3.2,7.3,51,99.99,n/a,n/a,-99.99,Henriksen +1-Wire,2013-02-10 05:40:00,
2013-02-10 00:50:00,12.8,-2.5,-100.00,NW,306,1.9,8.4,50,99.99,n/a,n/a,-99.99,Henriksen +1-Wire,2013-02-10 05:50:00,
2013-02-10 01:00:00,12.6,-2.4,-100.00,WSW,246,1.7,6.3,50,99.99,n/a,n/a,-99.99,Henriksen +1-Wire,2013-02-10 06:00:00,
2013-02-10 01:10:00,12.7,-2.1,-100.00,NW,306,2.2,6.3,51,99.99,n/a,n/a,-99.99,Henriksen +1-Wire,2013-02-10 06:10:00,
2013-02-10 01:20:00,13.1,-1.8,-100.00,NW,306,2.7,16.6,51,99.99,n/a,n/a,-99.99,Henriksen +1-Wire,2013-02-10 06:20:00,
2013-02-10 01:30:00,13.1,-1.4,-100.00,West,260,2.7,6.2,52,99.99,n/a,n/a,-99.99,Henriksen +1-Wire,2013-02-10 06:30:00,
2013-02-10 01:40:00,13.1,-1.4,-100.00,WNW,303,2.1,7.3,52,99.99,n/a,n/a,-99.99,Henriksen +1-Wire,2013-02-10 06:40:00,
2013-02-10 01:50:00,12.8,-2.5,-100.00,West,280,1.3,9.3,50,99.99,n/a,n/a,-99.99,Henriksen +1-Wire,2013-02-10 06:50:00,
2013-02-10 02:00:00,12.9,-2.8,-100.00,WNW,290,3.3,7.3,49,99.99,n/a,n/a,-99.99,Henriksen +1-Wire,2013-02-10 07:00:00,
2013-02-10 02:10:00,12.6,-2.8,-100.00,SW,236,0.0,5.2,50,99.99,n/a,n/a,-99.99,Henriksen +1-Wire,2013-02-10 07:10:00,
2013-02-10 02:20:00,12.2,-3.0,-100.00,NW,306,2.7,7.3,50,99.99,n/a,n/a,-99.99,Henriksen +1-Wire,2013-02-10 07:20:00,
2013-02-10 02:30:00,12.7,-4.0,-100.00,NW,312,2.9,7.3,47,99.99,n/a,n/a,-99.99,Henriksen +1-Wire,2013-02-10 07:30:00,
2013-02-10 02:40:00,12.1,-4.6,-100.00,NW,314,2.9,7.3,46,99.99,n/a,n/a,-99.99,Henriksen +1-Wire,2013-02-10 07:40:00,
2013-02-10 02:50:00,12.2,-4.5,-100.00,NW,312,2.1,6.3,46,99.99,n/a,n/a,-99.99,Henriksen +1-Wire,2013-02-10 07:50:00,
2013-02-10 03:00:00,11.5,-4.4,-100.00,NW,315,0.7,5.3,48,99.99,n/a,n/a,-99.99,Henriksen +1-Wire,2013-02-10 08:00:00,
2013-02-10 03:10:00,11.7,-3.5,-100.00,West,272,3.4,7.3,50,99.99,n/a,n/a,-99.99,Henriksen +1-Wire,2013-02-10 08:10:00,
2013-02-10 03:20:00,11.6,-3.6,-100.00,NW,319,2.7,5.2,50,99.99,n/a,n/a,-99.99,Henriksen +1-Wire,2013-02-10 08:20:00,
2013-02-10 03:30:00,11.5,-4.0,-100.00,NW,306,2.0,5.2,49,99.99,n/a,n/a,-99.99,Henriksen +1-Wire,2013-02-10 08:30:00,
2013-02-10 03:40:00,10.9,-4.6,-100.00,NNW,331,0.9,3.2,49,99.99,n/a,n/a,-99.99,Henriksen +1-Wire,2013-02-10 08:40:00,
2013-02-10 03:50:00,10.9,-4.6,-100.00,NW,312,2.4,6.2,49,99.99,n/a,n/a,-99.99,Henriksen +1-Wire,2013-02-10 08:50:00,
2013-02-10 04:00:00,11.6,-3.7,-100.00,NW,307,3.1,6.2,49,99.99,n/a,n/a,-99.99,Henriksen +1-Wire,2013-02-10 09:00:00,
2013-02-10 04:10:00,11.3,-4.3,-100.00,NW,313,3.3,5.2,49,99.99,n/a,n/a,-99.99,Henriksen +1-Wire,2013-02-10 09:10:00,
2013-02-10 04:20:00,11.5,-4.6,-100.00,NW,325,2.5,6.2,48,99.99,n/a,n/a,-99.99,Henriksen +1-Wire,2013-02-10 09:20:00,
2013-02-10 04:30:00,11.2,-4.9,-100.00,WNW,290,0.0,0.0,47,99.99,n/a,n/a,-99.99,Henriksen +1-Wire,2013-02-10 09:30:00,
2013-02-10 04:40:00,10.4,-4.5,-100.00,NNW,347,1.7,5.2,50,99.99,n/a,n/a,-99.99,Henriksen +1-Wire,2013-02-10 09:40:00,
2013-02-10 04:50:00,10.0,-5.2,-100.00,NNW,328,2.0,6.2,50,99.99,n/a,n/a,-99.99,Henriksen +1-Wire,2013-02-10 09:50:00,
2013-02-10 05:00:00,10.0,-5.4,-100.00,NW,325,0.0,1.0,49,99.99,n/a,n/a,-99.99,Henriksen +1-Wire,2013-02-10 10:00:00,
2013-02-10 05:10:00,9.4,-5.3,-100.00,NNW,337,0.0,0.0,51,99.99,n/a,n/a,-99.99,Henriksen +1-Wire,2013-02-10 10:10:00,
2013-02-10 05:20:00,8.9,-6.2,-100.00,NNW,337,0.0,0.0,50,99.99,n/a,n/a,-99.99,Henriksen +1-Wire,2013-02-10 10:20:00,
2013-02-10 05:30:00,7.8,-6.2,-100.00,NNW,337,0.0,0.0,52,99.99,n/a,n/a,-99.99,Henriksen +1-Wire,2013-02-10 10:30:00,
2013-02-10 05:40:00,8.1,-5.5,-100.00,NNW,333,1.3,6.3,53,99.99,n/a,n/a,-99.99,Henriksen +1-Wire,2013-02-10 10:40:00,
2013-02-10 05:50:00,8.7,-5.0,-100.00,NNW,336,0.0,2.1,53,99.99,n/a,n/a,-99.99,Henriksen +1-Wire,2013-02-10 10:50:00,
2013-02-10 06:00:00,8.9,-5.6,-100.00,NW,318,2.0,4.2,51,99.99,n/a,n/a,-99.99,Henriksen +1-Wire,2013-02-10 11:00:00,
2013-02-10 06:10:00,8.5,-5.8,-100.00,NNW,334,0.0,2.1,52,99.99,n/a,n/a,-99.99,Henriksen +1-Wire,2013-02-10 11:10:00,
2013-02-10 06:20:00,8.5,-5.8,-100.00,NW,319,0.1,4.2,51,99.99,n/a,n/a,-99.99,Henriksen +1-Wire,2013-02-10 11:20:00,
2013-02-10 06:30:00,9.4,-5.5,-100.00,NNW,337,0.0,0.0,50,99.99,n/a,n/a,-99.99,Henriksen +1-Wire,2013-02-10 11:30:00,
2013-02-10 06:40:00,8.6,-5.6,-100.00,NNW,337,0.0,0.0,52,99.99,n/a,n/a,-99.99,Henriksen +1-Wire,2013-02-10 11:40:00,
2013-02-10 06:50:00,7.8,-5.7,-100.00,NW,310,0.0,2.1,53,99.99,n/a,n/a,-99.99,Henriksen +1-Wire,2013-02-10 11:50:00,
2013-02-10 07:00:00,8.3,-5.3,-100.00,NNW,332,0.0,5.2,53,99.99,n/a,n/a,-99.99,Henriksen +1-Wire,2013-02-10 12:00:00,
2013-02-10 07:10:00,8.0,-5.7,-100.00,NE,45,0.1,3.1,53,99.99,n/a,n/a,-99.99,Henriksen +1-Wire,2013-02-10 12:10:00,
2013-02-10 07:20:00,7.4,-6.2,-100.00,NE,45,0.0,0.0,53,99.99,n/a,n/a,-99.99,Henriksen +1-Wire,2013-02-10 12:20:00,
2013-02-10 07:30:00,7.4,-5.7,-100.00,NW,309,0.0,1.0,54,99.99,n/a,n/a,-99.99,Henriksen +1-Wire,2013-02-10 12:30:00,
2013-02-10 07:40:00,8.7,-4.6,-100.00,NW,308,1.6,6.3,54,99.99,n/a,n/a,-99.99,Henriksen +1-Wire,2013-02-10 12:40:00,
2013-02-10 07:50:00,10.3,-4.0,-100.00,WNW,291,0.0,1.0,52,99.99,n/a,n/a,-99.99,Henriksen +1-Wire,2013-02-10 12:50:00,
2013-02-10 08:00:00,10.7,-4.4,-100.00,WSW,257,3.0,6.3,50,99.99,n/a,n/a,-99.99,Henriksen +1-Wire,2013-02-10 13:00:00,
2013-02-10 08:10:00,13.4,-3.0,-100.00,WNW,290,2.0,6.3,47,99.99,n/a,n/a,-99.99,Henriksen +1-Wire,2013-02-10 13:10:00,
2013-02-10 08:20:00,13.2,-5.4,-100.00,West,272,0.7,4.2,42,99.99,n/a,n/a,-99.99,Henriksen +1-Wire,2013-02-10 13:20:00,
2013-02-10 08:30:00,13.2,-5.8,-100.00,NE,45,0.0,2.1,42,99.99,n/a,n/a,-99.99,Henriksen +1-Wire,2013-02-10 13:30:00,
2013-02-10 08:40:00,13.9,-5.2,-100.00,SW,222,1.9,5.1,42,99.99,n/a,n/a,-99.99,Henriksen +1-Wire,2013-02-10 13:40:00,
2013-02-10 08:50:00,15.2,-4.4,-100.00,WNW,291,1.4,4.2,41,99.99,n/a,n/a,-99.99,Henriksen +1-Wire,2013-02-10 13:50:00,
2013-02-10 09:00:00,16.4,-3.3,-100.00,WNW,285,2.2,6.3,41,99.99,n/a,n/a,-99.99,Henriksen +1-Wire,2013-02-10 14:00:00,
2013-02-10 09:10:00,18.1,-3.8,-100.00,WNW,289,4.4,9.3,37,99.99,n/a,n/a,-99.99,Henriksen +1-Wire,2013-02-10 14:10:00,
2013-02-10 09:20:00,18.9,-4.5,-100.00,SW,224,2.2,6.2,35,99.99,n/a,n/a,-99.99,Henriksen +1-Wire,2013-02-10 14:20:00,
2013-02-10 09:30:00,19.3,-5.4,-100.00,WSW,252,2.0,4.2,33,99.99,n/a,n/a,-99.99,Henriksen +1-Wire,2013-02-10 14:30:00,
2013-02-10 09:40:00,20.3,-5.4,-100.00,NNW,330,2.1,6.2,31,99.99,n/a,n/a,-99.99,Henriksen +1-Wire,2013-02-10 14:40:00,
2013-02-10 09:50:00,20.8,-4.7,-100.00,North,8,1.3,5.2,32,99.99,n/a,n/a,-99.99,Henriksen +1-Wire,2013-02-10 14:50:00,
2013-02-10 10:00:00,21.3,-3.5,-100.00,NNW,336,0.0,3.1,33,99.99,n/a,n/a,-99.99,Henriksen +1-Wire,2013-02-10 15:00:00,
2013-02-10 10:10:00,21.9,-3.5,-100.00,NW,310,0.8,6.2,32,99.99,n/a,n/a,-99.99,Henriksen +1-Wire,2013-02-10 15:10:00,
2013-02-10 10:20:00,22.8,-3.4,-100.00,NE,45,2.6,6.3,31,99.99,n/a,n/a,-99.99,Henriksen +1-Wire,2013-02-10 15:20:00,
2013-02-10 10:30:00,23.8,-4.0,-100.00,WNW,287,3.5,7.3,29,99.99,n/a,n/a,-99.99,Henriksen +1-Wire,2013-02-10 15:30:00,
2013-02-10 10:40:00,24.8,-4.3,-100.00,WNW,291,2.9,7.3,27,99.99,n/a,n/a,-99.99,Henriksen +1-Wire,2013-02-10 15:40:00,
2013-02-10 10:50:00,27.6,-2.5,-100.00,WNW,290,1.0,7.3,26,99.99,n/a,n/a,-99.99,Henriksen +1-Wire,2013-02-10 15:50:00,
2013-02-10 11:00:00,29.4,-1.5,-100.00,West,273,3.8,8.3,26,99.99,n/a,n/a,-99.99,Henriksen +1-Wire,2013-02-10 16:00:00,
2013-02-10 11:10:00,29.6,-1.4,-100.00,WNW,289,1.8,6.3,26,99.99,n/a,n/a,-99.99,Henriksen +1-Wire,2013-02-10 16:10:00,
2013-02-10 11:20:00,28.3,-2.2,-100.00,WNW,291,3.3,7.3,26,99.99,n/a,n/a,-99.99,Henriksen +1-Wire,2013-02-10 16:20:00,
2013-02-10 11:30:00,28.1,-2.6,-100.00,WNW,284,3.4,8.3,26,99.99,n/a,n/a,-99.99,Henriksen +1-Wire,2013-02-10 16:30:00,
2013-02-10 11:40:00,28.4,-2.2,-100.00,WNW,293,1.4,7.3,26,99.99,n/a,n/a,-99.99,Henriksen +1-Wire,2013-02-10 16:40:00,
2013-02-10 11:50:00,29.3,-1.1,-100.00,WNW,294,3.6,6.3,26,99.99,n/a,n/a,-99.99,Henriksen +1-Wire,2013-02-10 16:50:00,
2013-02-10 12:00:00,31.3,0.6,-100.00,WNW,291,2.9,8.4,26,99.99,n/a,n/a,-99.99,Henriksen +1-Wire,2013-02-10 17:00:00,
2013-02-10 12:10:00,31.4,0.7,-100.00,WNW,290,0.8,7.3,26,99.99,n/a,n/a,-99.99,Henriksen +1-Wire,2013-02-10 17:10:00,
2013-02-10 12:20:00,33.2,2.2,-100.00,WNW,289,3.4,7.3,26,99.99,n/a,n/a,-99.99,Henriksen +1-Wire,2013-02-10 17:20:00,
2013-02-10 12:30:00,34.0,2.9,-100.00,WNW,283,1.7,9.3,26,99.99,n/a,n/a,-99.99,Henriksen +1-Wire,2013-02-10 17:30:00,
2013-02-10 12:40:00,33.6,2.4,-100.00,West,278,3.4,8.2,26,99.99,n/a,n/a,-99.99,Henriksen +1-Wire,2013-02-10 17:40:00,
2013-02-10 12:50:00,33.8,2.3,-100.00,WNW,291,2.1,7.3,26,99.99,n/a,n/a,-99.99,Henriksen +1-Wire,2013-02-10 17:50:00,
2013-02-10 13:00:00,34.6,3.1,-100.00,West,259,1.2,7.3,26,99.99,n/a,n/a,-99.99,Henriksen +1-Wire,2013-02-10 18:00:00,
2013-02-10 13:10:00,34.5,3.5,-100.00,WNW,291,1.8,6.3,26,99.99,n/a,n/a,-99.99,Henriksen +1-Wire,2013-02-10 18:10:00,
2013-02-10 13:20:00,34.0,2.7,-100.00,WNW,295,1.7,7.3,26,99.99,n/a,n/a,-99.99,Henriksen +1-Wire,2013-02-10 18:20:00,
2013-02-10 13:30:00,33.9,2.1,-100.00,WNW,291,1.0,5.3,25,99.99,n/a,n/a,-99.99,Henriksen +1-Wire,2013-02-10 18:30:00,
2013-02-10 13:40:00,33.6,1.7,-100.00,WNW,299,0.2,6.3,25,99.99,n/a,n/a,-99.99,Henriksen +1-Wire,2013-02-10 18:40:00,
2013-02-10 13:50:00,34.1,2.5,-100.00,North,353,1.0,3.2,25,99.99,n/a,n/a,-99.99,Henriksen +1-Wire,2013-02-10 18:50:00,
2013-02-10 14:00:00,33.9,2.4,-100.00,NNW,327,0.7,4.2,25,99.99,n/a,n/a,-99.99,Henriksen +1-Wire,2013-02-10 19:00:00,
2013-02-10 14:10:00,34.1,2.2,-100.00,West,273,0.8,5.2,25,99.99,n/a,n/a,-99.99,Henriksen +1-Wire,2013-02-10 19:10:00,
2013-02-10 14:20:00,33.9,2.0,-100.00,WNW,292,0.2,3.2,25,99.99,n/a,n/a,-99.99,Henriksen +1-Wire,2013-02-10 19:20:00,
2013-02-10 14:30:00,33.7,2.3,-100.00,NNW,342,1.1,4.2,26,99.99,n/a,n/a,-99.99,Henriksen +1-Wire,2013-02-10 19:30:00,
2013-02-10 14:40:00,34.1,2.3,-100.00,West,274,0.9,4.2,25,99.99,n/a,n/a,-99.99,Henriksen +1-Wire,2013-02-10 19:40:00,
2013-02-10 14:50:00,34.1,2.7,-100.00,WNW,291,0.3,3.1,26,99.99,n/a,n/a,-99.99,Henriksen +1-Wire,2013-02-10 19:50:00,
2013-02-10 15:00:00,33.6,2.9,-100.00,WNW,291,0.0,0.0,27,99.99,n/a,n/a,-99.99,Henriksen +1-Wire,2013-02-10 20:00:00,
2013-02-10 15:10:00,33.4,3.4,-100.00,NE,45,0.0,0.0,27,99.99,n/a,n/a,-99.99,Henriksen +1-Wire,2013-02-10 20:10:00,
2013-02-10 15:20:00,33.5,1.8,-100.00,WNW,291,1.9,4.2,25,99.99,n/a,n/a,-99.99,Henriksen +1-Wire,2013-02-10 20:20:00,
2013-02-10 15:30:00,33.7,0.6,-100.00,West,263,0.0,4.2,24,99.99,n/a,n/a,-99.99,Henriksen +1-Wire,2013-02-10 20:30:00,
2013-02-10 15:40:00,32.5,0.3,-100.00,WSW,248,2.0,4.2,25,99.99,n/a,n/a,-99.99,Henriksen +1-Wire,2013-02-10 20:40:00,
2013-02-10 15:50:00,33.3,1.7,-100.00,WSW,246,1.7,6.3,25,99.99,n/a,n/a,-99.99,Henriksen +1-Wire,2013-02-10 20:50:00,
2013-02-10 16:00:00,33.3,1.6,-100.00,WNW,291,0.6,6.3,25,99.99,n/a,n/a,-99.99,Henriksen +1-Wire,2013-02-10 21:00:00,
2013-02-10 16:10:00,32.3,-0.2,-100.00,WNW,291,0.2,4.2,24,99.99,n/a,n/a,-99.99,Henriksen +1-Wire,2013-02-10 21:10:00,
2013-02-10 16:20:00,30.0,-2.0,-100.00,WNW,291,0.0,4.2,24,99.99,n/a,n/a,-99.99,Henriksen +1-Wire,2013-02-10 21:20:00,
2013-02-10 16:30:00,29.3,-0.3,-100.00,WNW,292,0.4,3.5,27,99.99,n/a,n/a,-99.99,Henriksen +1-Wire,2013-02-10 21:30:00,
2013-02-10 16:40:00,28.7,0.2,-100.00,WNW,291,0.0,5.2,28,99.99,n/a,n/a,-99.99,Henriksen +1-Wire,2013-02-10 21:40:00,
2013-02-10 16:50:00,27.3,0.3,-100.00,WSW,255,0.0,0.0,30,99.99,n/a,n/a,-99.99,Henriksen +1-Wire,2013-02-10 21:50:00,
2013-02-10 17:00:00,27.0,0.8,-100.00,NE,45,0.0,0.0,31,99.99,n/a,n/a,-99.99,Henriksen +1-Wire,2013-02-10 22:00:00,
2013-02-10 17:10:00,26.3,-2.5,-100.00,NE,45,0.0,0.0,28,99.99,n/a,n/a,-99.99,Henriksen +1-Wire,2013-02-10 22:10:00,
2013-02-10 17:20:00,25.2,-0.2,-100.00,NE,45,0.0,0.0,32,99.99,n/a,n/a,-99.99,Henriksen +1-Wire,2013-02-10 22:20:00,
2013-02-10 17:30:00,24.2,1.7,-100.00,NE,45,0.0,0.0,37,99.99,n/a,n/a,-99.99,Henriksen +1-Wire,2013-02-10 22:30:00,
2013-02-10 17:40:00,23.7,2.3,-100.00,NE,45,0.0,0.0,39,99.99,n/a,n/a,-99.99,Henriksen +1-Wire,2013-02-10 22:40:00,
2013-02-10 17:50:00,23.4,2.6,-100.00,NE,45,0.0,0.0,40,99.99,n/a,n/a,-99.99,Henriksen +1-Wire,2013-02-10 22:50:00,
2013-02-10 18:00:00,24.2,2.3,-100.00,NE,45,0.0,0.0,38,99.99,n/a,n/a,-99.99,Henriksen +1-Wire,2013-02-10 23:00:00,
2013-02-10 18:10:00,24.8,-7.4,-100.00,WNW,291,0.1,3.1,23,99.99,n/a,n/a,-99.99,Henriksen +1-Wire,2013-02-10 23:10:00,
2013-02-10 18:20:00,24.6,-9.7,-100.00,WNW,290,0.0,1.0,21,99.99,n/a,n/a,-99.99,Henriksen +1-Wire,2013-02-10 23:20:00,
2013-02-10 18:30:00,24.5,-16.2,-100.00,NE,45,0.0,0.0,15,99.99,n/a,n/a,-99.99,Henriksen +1-Wire,2013-02-10 23:30:00,
2013-02-10 18:40:00,24.7,-16.0,-100.00,NE,45,0.2,2.1,15,99.99,n/a,n/a,-99.99,Henriksen +1-Wire,2013-02-10 23:40:00,
2013-02-10 18:50:00,24.7,-32.9,-100.00,NE,45,0.0,0.0,6,99.99,n/a,n/a,-99.99,Henriksen +1-Wire,2013-02-10 23:50:00,
2013-02-10 19:00:00,23.2,-36.4,-100.00,WNW,292,0.0,3.1,5,99.99,n/a,n/a,-99.99,Henriksen +1-Wire,2013-02-11 00:00:00,
2013-02-10 19:10:00,23.4,-18.0,-100.00,WNW,292,0.0,0.0,15,99.99,n/a,n/a,-99.99,Henriksen +1-Wire,2013-02-11 00:10:00,
2013-02-10 19:20:00,23.1,-15.7,-100.00,WNW,292,0.0,0.0,17,99.99,n/a,n/a,-99.99,Henriksen +1-Wire,2013-02-11 00:20:00,
2013-02-10 19:30:00,22.1,-9.4,-100.00,WNW,292,0.0,0.0,24,99.99,n/a,n/a,-99.99,Henriksen +1-Wire,2013-02-11 00:30:00,
2013-02-10 19:40:00,20.9,-5.1,-100.00,WNW,292,0.0,0.0,31,99.99,n/a,n/a,-99.99,Henriksen +1-Wire,2013-02-11 00:40:00,
2013-02-10 19:50:00,20.5,-3.5,-100.00,WNW,292,0.0,0.0,34,99.99,n/a,n/a,-99.99,Henriksen +1-Wire,2013-02-11 00:50:00,
2013-02-10 20:00:00,21.6,-4.8,-100.00,WNW,292,0.0,0.0,30,99.99,n/a,n/a,-99.99,Henriksen +1-Wire,2013-02-11 01:00:00,
2013-02-10 20:10:00,22.0,-7.0,-100.00,WNW,292,0.0,0.0,27,99.99,n/a,n/a,-99.99,Henriksen +1-Wire,2013-02-11 01:10:00,
2013-02-10 20:20:00,20.2,-6.2,-100.00,WNW,292,0.0,0.0,30,99.99,n/a,n/a,-99.99,Henriksen +1-Wire,2013-02-11 01:20:00,
2013-02-10 20:30:00,18.6,-4.4,-100.00,WNW,292,0.0,0.0,35,99.99,n/a,n/a,-99.99,Henriksen +1-Wire,2013-02-11 01:30:00,
2013-02-10 20:40:00,17.9,-2.5,-100.00,WNW,292,0.0,0.0,40,99.99,n/a,n/a,-99.99,Henriksen +1-Wire,2013-02-11 01:40:00,
2013-02-10 20:50:00,17.4,-2.0,-100.00,WNW,292,0.0,0.0,42,99.99,n/a,n/a,-99.99,Henriksen +1-Wire,2013-02-11 01:50:00,
2013-02-10 21:00:00,17.1,-1.3,-100.00,WNW,292,0.0,0.0,44,99.99,n/a,n/a,-99.99,Henriksen +1-Wire,2013-02-11 02:00:00,
2013-02-10 21:10:00,17.1,-1.5,-100.00,WNW,292,0.0,0.0,43,99.99,n/a,n/a,-99.99,Henriksen +1-Wire,2013-02-11 02:10:00,
2013-02-10 21:20:00,17.3,0.3,-100.00,WNW,292,0.0,0.0,47,99.99,n/a,n/a,-99.99,Henriksen +1-Wire,2013-02-11 02:20:00,
2013-02-10 21:30:00,17.4,-2.2,-100.00,WNW,292,0.0,0.0,41,99.99,n/a,n/a,-99.99,Henriksen +1-Wire,2013-02-11 02:30:00,
2013-02-10 21:40:00,17.3,-0.4,-100.00,WNW,292,0.0,0.0,45,99.99,n/a,n/a,-99.99,Henriksen +1-Wire,2013-02-11 02:40:00,
2013-02-10 21:50:00,16.6,1.4,-100.00,WNW,292,0.0,0.0,50,99.99,n/a,n/a,-99.99,Henriksen +1-Wire,2013-02-11 02:50:00,
2013-02-10 22:00:00,16.1,2.6,-100.00,WNW,292,0.0,0.0,55,99.99,n/a,n/a,-99.99,Henriksen +1-Wire,2013-02-11 03:00:00,
2013-02-10 22:10:00,15.5,3.0,-100.00,WNW,292,0.0,0.0,57,99.99,n/a,n/a,-99.99,Henriksen +1-Wire,2013-02-11 03:10:00,
2013-02-10 22:20:00,15.3,3.1,-100.00,WNW,292,0.0,0.0,58,99.99,n/a,n/a,-99.99,Henriksen +1-Wire,2013-02-11 03:20:00,
2013-02-10 22:30:00,15.1,3.1,-100.00,WNW,292,0.0,0.0,58,99.99,n/a,n/a,-99.99,Henriksen +1-Wire,2013-02-11 03:30:00,
2013-02-10 22:40:00,14.6,2.2,-100.00,WNW,292,0.0,0.0,57,99.99,n/a,n/a,-99.99,Henriksen +1-Wire,2013-02-11 03:40:00,
2013-02-10 22:50:00,14.3,2.5,-100.00,WNW,292,0.0,0.0,59,99.99,n/a,n/a,-99.99,Henriksen +1-Wire,2013-02-11 03:50:00,
2013-02-10 23:00:00,14.1,1.8,-100.00,WNW,292,0.0,0.0,57,99.99,n/a,n/a,-99.99,Henriksen +1-Wire,2013-02-11 04:00:00,
2013-02-10 23:10:00,13.9,2.6,-100.00,WNW,292,0.0,0.0,60,99.99,n/a,n/a,-99.99,Henriksen +1-Wire,2013-02-11 04:10:00,
2013-02-10 23:20:00,14.1,1.8,-100.00,WNW,292,0.0,0.0,57,99.99,n/a,n/a,-99.99,Henriksen +1-Wire,2013-02-11 04:20:00,
2013-02-10 23:30:00,13.5,2.5,-100.00,WNW,292,0.0,0.0,61,99.99,n/a,n/a,-99.99,Henriksen +1-Wire,2013-02-11 04:30:00,
2013-02-10 23:40:00,13.0,2.7,-100.00,WNW,292,0.0,0.0,63,99.99,n/a,n/a,-99.99,Henriksen +1-Wire,2013-02-11 04:40:00,
2013-02-10 23:50:00,13.0,2.8,-100.00,WNW,292,0.0,0.0,63,99.99,n/a,n/a,-99.99,Henriksen +1-Wire,2013-02-11 04:50:00,